createdAt,value
2019-02-14T00:00:10.325Z,16.87
2019-02-14T00:02:38.723Z,17.73
2019-02-14T00:05:15.893Z,15.90
2019-02-14T00:07:37.436Z,11.05
2019-02-14T00:10:08.488Z,12.82
2019-02-14T00:12:36.983Z,15.78
2019-02-14T00:15:13.740Z,17.37
2019-02-14T00:17:42.172Z,15.05
2019-02-14T00:20:10.576Z,13.05
2019-02-14T00:22:38.974Z,15.68
2019-02-14T00:25:07.552Z,13.88
2019-02-14T00:27:36.020Z,13.68
2019-02-14T00:30:05.393Z,15.90
2019-02-14T00:32:33.856Z,11.95
2019-02-14T00:35:02.253Z,13.48
2019-02-14T00:37:30.730Z,17.12
2019-02-14T00:39:59.140Z,11.83
2019-02-14T00:42:27.565Z,14.90
2019-02-14T00:44:56.036Z,10.65
2019-02-14T00:47:24.440Z,12.53
2019-02-14T00:49:52.856Z,16.95
2019-02-14T00:52:21.336Z,14.95
2019-02-14T00:54:49.874Z,10.93
2019-02-14T00:57:18.274Z,14.63
2019-02-14T00:59:46.666Z,16.55
2019-02-14T01:02:15.065Z,11.55
2019-02-14T01:04:43.538Z,12.98
2019-02-14T01:07:11.974Z,14.73
2019-02-14T01:09:40.416Z,14.00
2019-02-14T01:12:09.688Z,12.63
2019-02-14T01:14:38.196Z,13.08
2019-02-14T01:17:06.614Z,15.68
2019-02-14T01:19:36.046Z,15.68
2019-02-14T01:22:04.520Z,17.65
2019-02-14T01:24:32.976Z,17.45
2019-02-14T01:27:01.385Z,18.75
2019-02-14T01:29:29.845Z,17.95
2019-02-14T01:31:58.283Z,15.32
2019-02-14T01:34:26.683Z,20.92
2019-02-14T01:36:55.128Z,25.92
2019-02-14T01:39:23.513Z,21.35
2019-02-14T01:41:52.030Z,19.40
2019-02-14T01:44:20.465Z,15.85
2019-02-14T01:46:48.873Z,16.07
2019-02-14T01:49:17.305Z,18.17
2019-02-14T01:51:45.696Z,11.43
2019-02-14T01:54:14.100Z,11.85
2019-02-14T01:56:42.533Z,11.63
2019-02-14T01:59:10.937Z,14.20
2019-02-14T02:01:39.399Z,8.18
2019-02-14T02:04:07.800Z,7.40
2019-02-14T02:06:36.203Z,8.43
2019-02-14T02:09:07.334Z,11.70
2019-02-14T02:14:03.572Z,11.95
2019-02-14T02:16:31.977Z,10.65
2019-02-14T02:19:00.372Z,13.35
2019-02-14T02:21:29.667Z,11.48
2019-02-14T02:23:58.132Z,11.43
2019-02-14T02:26:26.539Z,11.20
2019-02-14T02:28:54.975Z,11.28
2019-02-14T02:31:23.342Z,13.25
2019-02-14T02:33:51.768Z,13.55
2019-02-14T02:36:20.174Z,15.63
2019-02-14T02:38:48.577Z,9.75
2019-02-14T02:41:17.028Z,9.83
2019-02-14T02:43:45.420Z,11.25
2019-02-14T02:46:13.901Z,8.80
2019-02-14T02:48:42.316Z,10.40
2019-02-14T02:51:10.712Z,18.82
2019-02-14T02:53:39.261Z,10.53
2019-02-14T02:56:07.667Z,15.43
2019-02-14T02:58:36.062Z,15.30
2019-02-14T03:01:04.528Z,12.05
2019-02-14T03:03:32.920Z,10.55
2019-02-14T03:06:10.311Z,16.90
2019-02-14T03:08:31.469Z,13.90
2019-02-14T03:10:59.930Z,11.33
2019-02-14T03:13:28.315Z,9.68
2019-02-14T03:15:56.736Z,11.15
2019-02-14T03:18:25.172Z,12.40
2019-02-14T03:20:53.566Z,10.93
2019-02-14T03:23:21.959Z,9.00
2019-02-14T03:25:50.397Z,10.55
2019-02-14T03:28:18.759Z,13.68
2019-02-14T03:30:47.554Z,9.85
2019-02-14T03:33:16.015Z,8.50
2019-02-14T03:35:44.402Z,14.85
2019-02-14T03:38:12.810Z,13.38
2019-02-14T03:40:41.210Z,13.45
2019-02-14T03:43:09.646Z,17.87
2019-02-14T03:45:38.046Z,9.80
2019-02-14T03:48:06.441Z,15.28
2019-02-14T03:50:34.856Z,17.92
2019-02-14T03:53:03.278Z,10.32
2019-02-14T03:55:31.704Z,11.35
2019-02-14T03:58:00.169Z,11.50
2019-02-14T04:00:28.648Z,16.93
2019-02-14T04:02:57.052Z,11.88
2019-02-14T04:05:25.461Z,11.50
2019-02-14T04:07:54.002Z,10.68
2019-02-14T04:10:22.408Z,13.48
2019-02-14T04:12:50.806Z,8.05
2019-02-14T04:15:19.274Z,9.55
2019-02-14T04:17:47.674Z,13.65
2019-02-14T04:20:16.093Z,13.62
2019-02-14T04:22:44.565Z,12.63
2019-02-14T04:25:12.966Z,12.07
2019-02-14T04:27:41.361Z,15.32
2019-02-14T04:30:13.857Z,15.23
2019-02-14T04:32:42.283Z,11.25
2019-02-14T04:35:10.713Z,9.30
2019-02-14T04:37:39.112Z,11.55
2019-02-14T04:40:10.382Z,18.80
2019-02-14T04:42:38.847Z,13.08
2019-02-14T04:45:08.204Z,16.50
2019-02-14T04:47:36.601Z,13.72
2019-02-14T04:50:07.145Z,11.48
2019-02-14T04:52:35.577Z,16.60
2019-02-14T04:55:05.617Z,18.67
2019-02-14T04:57:34.037Z,15.70
2019-02-14T05:00:02.741Z,13.95
2019-02-14T05:02:31.141Z,17.50
2019-02-14T05:04:59.550Z,12.50
2019-02-14T05:07:28.036Z,18.12
2019-02-14T05:09:56.465Z,17.67
2019-02-14T05:12:26.205Z,14.93
2019-02-14T05:14:54.664Z,19.37
2019-02-14T05:17:23.071Z,18.48
2019-02-14T05:19:51.480Z,18.10
2019-02-14T05:22:19.906Z,15.70
2019-02-14T05:24:48.312Z,17.48
2019-02-14T05:27:16.709Z,22.77
2019-02-14T05:29:45.106Z,19.80
2019-02-14T05:32:13.498Z,11.48
2019-02-14T05:34:41.961Z,17.37
2019-02-14T05:37:10.361Z,21.33
2019-02-14T05:39:38.769Z,21.90
2019-02-14T05:42:07.169Z,19.45
2019-02-14T05:44:35.564Z,25.12
2019-02-14T05:47:03.992Z,21.07
2019-02-14T05:49:32.389Z,20.20
2019-02-14T05:52:00.901Z,16.70
2019-02-14T05:54:29.320Z,20.25
2019-02-14T05:56:57.792Z,14.50
2019-02-14T05:59:26.232Z,16.00
2019-02-14T06:01:54.769Z,15.93
2019-02-14T06:04:23.181Z,22.35
2019-02-14T06:06:51.583Z,20.10
2019-02-14T06:09:20.086Z,18.20
2019-02-14T06:11:48.514Z,18.85
2019-02-14T06:14:16.943Z,17.70
2019-02-14T06:16:45.305Z,22.52
2019-02-14T06:19:13.704Z,16.50
2019-02-14T06:21:42.111Z,20.72
2019-02-14T06:24:10.597Z,23.50
2019-02-14T06:26:39.006Z,16.62
2019-02-14T06:29:07.397Z,19.30
2019-02-14T06:31:35.801Z,21.40
2019-02-14T06:34:04.209Z,18.05
2019-02-14T06:36:32.648Z,28.23
2019-02-14T06:39:01.114Z,34.73
2019-02-14T06:41:29.522Z,26.80
2019-02-14T06:43:57.958Z,28.52
2019-02-14T06:46:26.328Z,32.58
2019-02-14T06:48:54.837Z,34.15
2019-02-14T06:51:23.309Z,27.60
2019-02-14T06:53:51.702Z,26.77
2019-02-14T06:56:20.172Z,31.70
2019-02-14T06:58:48.570Z,30.97
2019-02-14T07:01:16.973Z,24.20
2019-02-14T07:03:45.400Z,28.32
2019-02-14T07:06:13.845Z,27.15
2019-02-14T07:08:42.244Z,26.17
2019-02-14T07:11:10.643Z,23.70
2019-02-14T07:13:39.060Z,26.27
2019-02-14T07:16:07.448Z,27.98
2019-02-14T07:18:35.883Z,29.30
2019-02-14T07:21:04.296Z,36.23
2019-02-14T07:23:32.682Z,31.50
2019-02-14T07:26:01.079Z,30.40
2019-02-14T07:28:29.560Z,37.15
2019-02-14T07:30:58.004Z,26.68
2019-02-14T07:33:26.396Z,27.50
2019-02-14T07:35:54.836Z,24.25
2019-02-14T07:38:23.227Z,32.15
2019-02-14T07:40:51.629Z,28.57
2019-02-14T07:43:20.034Z,29.07
2019-02-14T07:45:48.420Z,33.23
2019-02-14T07:48:16.844Z,30.23
2019-02-14T07:50:45.317Z,23.60
2019-02-14T07:53:13.724Z,27.15
2019-02-14T07:55:42.124Z,27.95
2019-02-14T07:58:10.523Z,27.05
2019-02-14T08:00:38.921Z,19.67
2019-02-14T08:03:07.318Z,21.20
2019-02-14T08:05:35.757Z,20.55
2019-02-14T08:08:04.158Z,35.05
2019-02-14T08:10:32.557Z,39.15
2019-02-14T08:13:01.201Z,27.60
2019-02-14T08:15:29.672Z,30.15
2019-02-14T08:17:58.100Z,25.45
2019-02-14T08:20:26.500Z,24.27
2019-02-14T08:22:54.974Z,19.02
2019-02-14T08:25:23.385Z,18.60
2019-02-14T08:27:51.787Z,20.05
2019-02-14T08:30:20.831Z,20.30
2019-02-14T08:32:49.300Z,21.45
2019-02-14T08:35:17.705Z,21.02
2019-02-14T08:37:46.291Z,19.85
2019-02-14T08:40:29.652Z,19.52
2019-02-14T08:42:58.783Z,15.95
2019-02-14T08:45:27.361Z,16.10
2019-02-14T08:47:55.759Z,16.97
2019-02-14T08:50:24.160Z,18.87
2019-02-14T08:52:52.574Z,18.87
2019-02-14T08:55:21.009Z,16.32
2019-02-14T08:57:49.409Z,20.12
2019-02-14T09:00:17.885Z,14.63
2019-02-14T09:02:46.293Z,16.37
2019-02-14T09:05:14.699Z,19.27
2019-02-14T09:07:43.097Z,20.77
2019-02-14T09:10:16.497Z,17.32
2019-02-14T09:12:44.888Z,19.77
2019-02-14T09:15:15.092Z,19.07
2019-02-14T09:17:43.571Z,18.32
2019-02-14T09:20:24.008Z,20.65
2019-02-14T09:22:52.418Z,30.67
2019-02-14T09:25:20.852Z,26.40
2019-02-14T09:27:49.248Z,27.52
2019-02-14T09:30:17.719Z,22.90
2019-02-14T09:32:46.395Z,18.37
2019-02-14T09:35:14.791Z,25.10
2019-02-14T09:37:43.196Z,22.45
2019-02-14T09:40:18.192Z,25.27
2019-02-14T09:42:46.581Z,18.40
2019-02-14T09:45:15.196Z,21.48
2019-02-14T09:47:43.594Z,26.40
2019-02-14T09:50:14.130Z,16.97
2019-02-14T09:52:42.513Z,22.82
2019-02-14T09:55:12.244Z,16.35
2019-02-14T09:57:40.645Z,18.45
2019-02-14T10:00:12.198Z,21.60
2019-02-14T10:02:40.590Z,20.92
2019-02-14T10:05:10.026Z,16.02
2019-02-14T10:07:38.472Z,17.95
2019-02-14T10:10:10.277Z,19.62
2019-02-14T10:12:38.665Z,14.25
2019-02-14T10:15:08.913Z,20.35
2019-02-14T10:17:37.323Z,25.82
2019-02-14T10:20:11.532Z,19.90
2019-02-14T10:22:39.932Z,15.50
2019-02-14T10:25:08.430Z,15.90
2019-02-14T10:30:22.349Z,20.35
2019-02-14T10:32:50.801Z,17.32
2019-02-14T10:35:19.199Z,15.00
2019-02-14T10:37:47.676Z,17.02
2019-02-14T10:40:16.889Z,19.35
2019-02-14T10:42:45.279Z,15.83
2019-02-14T10:45:21.934Z,17.02
2019-02-14T10:47:50.330Z,17.87
2019-02-14T10:50:18.815Z,16.10
2019-02-14T10:52:47.236Z,14.70
2019-02-14T10:55:16.282Z,13.43
2019-02-14T10:57:44.813Z,19.50
2019-02-14T11:00:19.057Z,18.17
2019-02-14T11:02:47.917Z,27.40
2019-02-14T11:05:17.068Z,33.33
2019-02-14T11:07:45.473Z,25.77
2019-02-14T11:10:14.824Z,21.52
2019-02-14T11:12:43.368Z,22.82
2019-02-14T11:15:20.991Z,19.32
2019-02-14T11:17:49.470Z,25.02
2019-02-14T11:20:18.235Z,25.97
2019-02-14T11:22:48.834Z,24.77
2019-02-14T11:25:38.200Z,30.00
2019-02-14T11:28:07.050Z,20.30
2019-02-14T11:30:35.474Z,26.97
2019-02-14T11:33:03.860Z,21.10
2019-02-14T11:35:32.373Z,24.72
2019-02-14T11:38:00.769Z,24.87
2019-02-14T11:40:29.204Z,22.73
2019-02-14T11:42:57.595Z,23.55
2019-02-14T11:45:26.166Z,26.45
2019-02-14T11:47:54.574Z,35.83
2019-02-14T11:50:22.981Z,24.37
2019-02-14T11:52:51.436Z,33.70
2019-02-14T11:55:19.948Z,23.50
2019-02-14T11:57:48.375Z,23.02
2019-02-14T12:00:22.803Z,24.37
2019-02-14T12:02:55.512Z,22.75
2019-02-14T12:05:21.285Z,34.60
2019-02-14T12:07:49.693Z,27.20
2019-02-14T12:10:18.108Z,22.15
2019-02-14T12:12:46.513Z,24.47
2019-02-14T12:15:14.990Z,25.80
2019-02-14T12:17:43.425Z,27.15
2019-02-14T12:20:14.186Z,28.98
2019-02-14T12:22:46.807Z,28.30
2019-02-14T12:25:24.205Z,25.57
2019-02-14T12:27:52.600Z,22.55
2019-02-14T12:30:22.180Z,26.57
2019-02-14T12:32:50.578Z,18.92
2019-02-14T12:35:19.019Z,23.90
2019-02-14T12:37:47.433Z,21.75
2019-02-14T12:40:15.821Z,23.42
2019-02-14T12:42:44.311Z,23.42
2019-02-14T12:45:26.346Z,22.15
2019-02-14T12:47:54.711Z,26.40
2019-02-14T12:50:23.120Z,28.12
2019-02-14T12:52:51.524Z,27.15
2019-02-14T12:55:19.935Z,23.07
2019-02-14T12:57:48.380Z,28.15
2019-02-14T13:00:21.782Z,41.45
2019-02-14T13:02:50.253Z,43.68
2019-02-14T13:05:18.657Z,40.05
2019-02-14T13:07:47.131Z,41.95
2019-02-14T13:10:17.168Z,47.23
2019-02-14T13:12:45.605Z,35.78
2019-02-14T13:15:25.582Z,36.17
2019-02-14T13:17:54.013Z,32.90
2019-02-14T13:20:22.413Z,29.55
2019-02-14T13:22:50.818Z,37.73
2019-02-14T13:25:19.232Z,28.15
2019-02-14T13:27:47.698Z,43.17
2019-02-14T13:30:24.715Z,35.00
2019-02-14T13:32:53.110Z,34.30
2019-02-14T13:35:21.584Z,31.10
2019-02-14T13:37:50.064Z,39.80
2019-02-14T13:40:18.481Z,33.48
2019-02-14T13:42:46.921Z,32.55
2019-02-14T13:45:21.501Z,31.48
2019-02-14T13:47:49.930Z,31.97
2019-02-14T13:50:18.306Z,30.48
2019-02-14T13:52:46.723Z,33.20
2019-02-14T13:55:15.308Z,37.80
2019-02-14T13:57:43.797Z,37.93
2019-02-14T14:00:24.580Z,36.48
2019-02-14T14:02:52.983Z,28.73
2019-02-14T14:05:21.396Z,30.77
2019-02-14T14:07:49.798Z,36.80
2019-02-14T14:10:18.264Z,31.87
2019-02-14T14:12:46.753Z,33.02
2019-02-14T14:15:15.178Z,31.37
2019-02-14T14:17:43.601Z,31.25
2019-02-14T14:20:12.000Z,28.15
2019-02-14T14:22:40.403Z,23.30
2019-02-14T14:25:11.758Z,32.88
2019-02-14T14:27:40.239Z,30.88
2019-02-14T14:30:11.174Z,29.90
2019-02-14T14:32:40.417Z,30.12
2019-02-14T14:35:10.994Z,28.00
2019-02-14T14:37:39.763Z,28.87
2019-02-14T14:40:10.944Z,28.20
2019-02-14T14:45:16.658Z,30.27
2019-02-14T14:47:45.062Z,27.82
2019-02-14T14:50:13.469Z,35.10
2019-02-14T14:52:41.862Z,30.88
2019-02-14T14:55:10.304Z,28.67
2019-02-14T14:57:38.703Z,28.83
2019-02-14T15:00:09.326Z,21.05
2019-02-14T15:02:37.734Z,28.20
2019-02-14T15:05:06.501Z,24.70
2019-02-14T15:07:36.130Z,23.20
2019-02-14T15:10:05.845Z,22.32
2019-02-14T15:12:34.245Z,28.85
2019-02-14T15:15:02.646Z,24.43
2019-02-14T15:17:31.047Z,32.60
2019-02-14T15:19:59.540Z,39.95
2019-02-14T15:22:27.944Z,38.00
2019-02-14T15:24:56.400Z,32.50
2019-02-14T15:27:24.825Z,34.33
2019-02-14T15:29:53.238Z,33.10
2019-02-14T15:32:21.673Z,27.87
2019-02-14T15:34:50.991Z,27.65
2019-02-14T15:37:19.464Z,40.65
2019-02-14T15:39:47.857Z,30.27
2019-02-14T15:42:16.293Z,30.32
2019-02-14T15:44:44.729Z,35.83
2019-02-14T15:47:13.137Z,28.35
2019-02-14T15:49:41.549Z,29.60
2019-02-14T15:52:10.027Z,32.55
2019-02-14T15:54:38.455Z,36.85
2019-02-14T15:57:06.902Z,35.35
2019-02-14T15:59:35.288Z,32.50
2019-02-14T16:02:04.262Z,36.25
2019-02-14T16:04:33.752Z,34.03
2019-02-14T16:07:02.163Z,37.28
2019-02-14T16:09:30.600Z,40.67
2019-02-14T16:11:59.077Z,45.43
2019-02-14T16:14:27.475Z,38.13
2019-02-14T16:16:55.884Z,36.53
2019-02-14T16:19:24.405Z,33.28
2019-02-14T16:21:54.262Z,34.25
2019-02-14T16:24:22.871Z,36.90
2019-02-14T16:26:51.306Z,36.63
2019-02-14T16:29:19.715Z,33.08
2019-02-14T16:31:48.114Z,36.80
2019-02-14T16:34:16.614Z,33.60
2019-02-14T16:36:45.909Z,39.10
2019-02-14T16:39:14.312Z,36.53
2019-02-14T16:41:42.714Z,29.60
2019-02-14T16:44:11.116Z,34.70
2019-02-14T16:46:39.544Z,32.63
2019-02-14T16:49:07.940Z,39.15
2019-02-14T16:51:36.349Z,39.95
2019-02-14T16:54:04.748Z,31.12
2019-02-14T16:56:33.148Z,37.75
2019-02-14T16:59:01.585Z,32.25
2019-02-14T17:01:29.977Z,38.23
2019-02-14T17:03:58.450Z,34.85
2019-02-14T17:06:26.916Z,36.70
2019-02-14T17:08:55.593Z,35.90
2019-02-14T17:11:24.022Z,33.80
2019-02-14T17:13:52.489Z,38.65
2019-02-14T17:16:21.032Z,34.00
2019-02-14T17:18:49.441Z,36.90
2019-02-14T17:21:17.977Z,35.10
2019-02-14T17:23:46.407Z,36.60
2019-02-14T17:26:14.810Z,31.35
2019-02-14T17:28:43.217Z,36.63
2019-02-14T17:31:11.677Z,38.40
2019-02-14T17:33:40.027Z,39.13
2019-02-14T17:36:08.443Z,39.70
2019-02-14T17:38:36.841Z,32.75
2019-02-14T17:41:05.244Z,34.73
2019-02-14T17:43:33.714Z,38.83
2019-02-14T17:46:02.198Z,36.68
2019-02-14T17:48:30.685Z,29.70
2019-02-14T17:50:59.080Z,41.53
2019-02-14T17:53:27.478Z,27.90
2019-02-14T17:55:55.992Z,29.65
2019-02-14T17:58:24.416Z,39.25
2019-02-14T18:00:52.938Z,35.60
2019-02-14T18:03:21.349Z,34.15
2019-02-14T18:05:49.731Z,32.08
2019-02-14T18:08:18.201Z,31.35
2019-02-14T18:10:54.545Z,31.57
2019-02-14T18:13:16.870Z,34.40
2019-02-14T18:15:45.270Z,30.60
2019-02-14T18:18:13.665Z,30.32
2019-02-14T18:20:43.221Z,29.35
2019-02-14T18:23:11.769Z,34.50
2019-02-14T18:25:40.192Z,31.93
2019-02-14T18:28:08.590Z,33.18
2019-02-14T18:30:36.985Z,37.15
2019-02-14T18:33:05.448Z,34.18
2019-02-14T18:35:33.830Z,38.85
2019-02-14T18:38:02.260Z,37.88
2019-02-14T18:40:30.666Z,31.40
2019-02-14T18:42:59.066Z,31.52
2019-02-14T18:45:27.476Z,38.60
2019-02-14T18:47:55.901Z,39.60
2019-02-14T18:50:24.334Z,40.90
2019-02-14T18:52:52.929Z,36.13
2019-02-14T18:55:21.397Z,30.45
2019-02-14T18:57:49.796Z,34.58
2019-02-14T19:00:19.538Z,28.70
2019-02-14T19:02:47.973Z,30.10
2019-02-14T19:05:16.539Z,26.45
2019-02-14T19:07:45.034Z,28.02
2019-02-14T19:10:15.381Z,26.57
2019-02-14T19:12:44.514Z,25.32
2019-02-14T19:15:13.543Z,25.72
2019-02-14T19:17:42.106Z,29.20
2019-02-14T19:20:11.438Z,32.23
2019-02-14T19:22:41.078Z,25.43
2019-02-14T19:25:09.615Z,22.90
2019-02-14T19:27:39.165Z,27.52
2019-02-14T19:30:11.654Z,30.62
2019-02-14T19:32:40.150Z,35.15
2019-02-14T19:35:09.404Z,43.55
2019-02-14T19:37:37.810Z,46.13
2019-02-14T19:40:08.450Z,49.30
2019-02-14T19:43:00.045Z,61.92
2019-02-14T19:45:36.378Z,63.63
2019-02-14T19:47:58.566Z,71.20
2019-02-14T19:50:26.968Z,73.02
2019-02-14T19:52:55.374Z,58.17
2019-02-14T19:55:23.777Z,66.00
2019-02-14T19:57:52.225Z,78.50
2019-02-14T20:00:20.638Z,67.42
2019-02-14T20:02:49.034Z,61.77
2019-02-14T20:05:17.480Z,66.62
2019-02-14T20:07:45.865Z,59.27
2019-02-14T20:10:15.141Z,65.10
2019-02-14T20:12:43.533Z,64.17
2019-02-14T20:15:14.472Z,67.25
2019-02-14T20:17:42.876Z,65.05
2019-02-14T20:20:11.348Z,81.95
2019-02-14T20:22:39.779Z,69.80
2019-02-14T20:25:14.244Z,62.05
2019-02-14T20:27:42.684Z,61.75
2019-02-14T20:30:11.088Z,61.83
2019-02-14T20:32:39.496Z,67.35
2019-02-14T20:35:08.861Z,67.32
2019-02-14T20:37:37.261Z,70.40
2019-02-14T20:40:08.307Z,57.10
2019-02-14T20:42:36.708Z,70.60
2019-02-14T20:45:08.226Z,72.20
2019-02-14T20:47:36.656Z,58.30
2019-02-14T20:50:08.356Z,64.22
2019-02-14T20:52:36.805Z,63.78
2019-02-14T20:55:08.611Z,76.15
2019-02-14T20:57:37.017Z,68.70
2019-02-14T21:00:10.548Z,63.95
2019-02-14T21:02:38.951Z,67.90
2019-02-14T21:05:07.507Z,87.80
2019-02-14T21:07:36.843Z,81.87
2019-02-14T21:10:06.888Z,85.50
2019-02-14T21:12:35.396Z,71.77
2019-02-14T21:15:04.251Z,69.05
2019-02-14T21:17:32.761Z,68.62
2019-02-14T21:20:01.233Z,69.65
2019-02-14T21:22:29.626Z,71.53
2019-02-14T21:24:58.063Z,73.67
2019-02-14T21:27:27.433Z,71.92
2019-02-14T21:29:55.882Z,55.33
2019-02-14T21:32:24.401Z,63.92
2019-02-14T21:34:52.900Z,64.90
2019-02-14T21:37:21.333Z,66.02
2019-02-14T21:39:49.733Z,69.20
2019-02-14T21:42:21.992Z,59.27
2019-02-14T21:44:49.166Z,72.87
2019-02-14T21:47:17.624Z,59.53
2019-02-14T21:49:46.047Z,57.80
2019-02-14T21:52:14.461Z,69.60
2019-02-14T21:54:42.861Z,62.23
2019-02-14T21:57:11.262Z,66.60
2019-02-14T21:59:39.677Z,60.12
2019-02-14T22:02:08.133Z,60.28
2019-02-14T22:04:36.513Z,67.50
2019-02-14T22:07:05.291Z,71.30
2019-02-14T22:09:33.686Z,71.07
2019-02-14T22:12:02.159Z,68.55
2019-02-14T22:14:30.743Z,61.77
2019-02-14T22:16:59.193Z,68.12
2019-02-14T22:19:27.680Z,58.30
2019-02-14T22:21:56.088Z,69.40
2019-02-14T22:24:24.552Z,67.20
2019-02-14T22:26:52.998Z,63.45
2019-02-14T22:29:21.402Z,65.28
2019-02-14T22:31:49.804Z,55.33
2019-02-14T22:34:18.210Z,52.17
2019-02-14T22:36:46.640Z,50.12
2019-02-14T22:39:15.118Z,43.48
2019-02-14T22:41:43.511Z,55.75
2019-02-14T22:44:11.921Z,54.83
2019-02-14T22:46:40.348Z,51.02
2019-02-14T22:49:08.751Z,48.45
2019-02-14T22:51:37.260Z,43.55
2019-02-14T22:54:05.660Z,43.20
2019-02-14T22:56:34.049Z,41.25
2019-02-14T22:59:02.455Z,38.28
2019-02-14T23:01:30.865Z,37.42
2019-02-14T23:03:59.348Z,33.60
2019-02-14T23:06:27.758Z,37.38
2019-02-14T23:08:56.184Z,36.60
2019-02-14T23:11:24.613Z,32.75
2019-02-14T23:13:53.009Z,34.35
2019-02-14T23:16:21.418Z,30.90
2019-02-14T23:18:49.820Z,38.28
2019-02-14T23:21:18.317Z,39.85
2019-02-14T23:23:46.712Z,32.83
2019-02-14T23:26:15.192Z,32.28
2019-02-14T23:28:43.605Z,30.85
2019-02-14T23:31:12.008Z,32.23
2019-02-14T23:33:40.442Z,32.03
2019-02-14T23:36:08.848Z,32.25
2019-02-14T23:38:37.248Z,28.45
2019-02-14T23:41:05.656Z,33.85
2019-02-14T23:43:35.255Z,29.32
2019-02-14T23:46:03.712Z,28.38
2019-02-14T23:48:32.113Z,31.12
2019-02-14T23:51:00.515Z,29.12
2019-02-14T23:53:28.941Z,32.53
2019-02-14T23:55:57.417Z,27.30
2019-02-14T23:58:25.852Z,35.38
